createdAt,value
2023-03-17T00:06:28.529Z,1.67
2023-03-17T00:08:57.543Z,2.22
2023-03-17T00:11:27.059Z,2.23
2023-03-17T00:13:54.558Z,1.66
2023-03-17T00:16:24.699Z,2.02
2023-03-17T00:18:53.778Z,2.30
2023-03-17T00:21:26.883Z,1.70
2023-03-17T00:23:55.434Z,1.56
2023-03-17T00:26:23.224Z,1.72
2023-03-17T00:28:51.229Z,2.28
2023-03-17T00:31:21.300Z,2.30
2023-03-17T00:33:50.563Z,2.28
2023-03-17T00:36:20.308Z,1.68
2023-03-17T00:38:49.749Z,1.67
2023-03-17T00:41:16.624Z,2.29
2023-03-17T00:43:44.492Z,1.53
2023-03-17T00:46:14.802Z,1.68
2023-03-17T00:48:43.479Z,1.75
2023-03-17T00:51:10.891Z,1.76
2023-03-17T00:53:39.055Z,2.26
2023-03-17T00:56:13.530Z,2.27
2023-03-17T00:58:41.153Z,2.32
2023-03-17T01:01:08.767Z,1.81
2023-03-17T01:03:36.938Z,1.73
2023-03-17T01:06:04.949Z,2.34
2023-03-17T01:08:32.604Z,1.58
2023-03-17T01:11:00.422Z,2.35
2023-03-17T01:13:29.522Z,2.38
2023-03-17T01:15:57.249Z,1.86
2023-03-17T01:18:24.825Z,1.89
2023-03-17T01:20:53.320Z,2.34
2023-03-17T01:23:22.182Z,2.37
2023-03-17T01:25:50.218Z,2.33
2023-03-17T01:28:20.167Z,2.01
2023-03-17T01:30:50.042Z,1.54
2023-03-17T01:33:17.520Z,2.31
2023-03-17T01:35:45.826Z,1.72
2023-03-17T01:38:13.947Z,2.25
2023-03-17T01:40:44.256Z,1.59
2023-03-17T01:43:22.479Z,2.14
2023-03-17T01:46:24.778Z,2.17
2023-03-17T01:49:04.250Z,2.07
2023-03-17T01:51:32.487Z,1.95
2023-03-17T01:54:01.752Z,1.38
2023-03-17T01:56:29.097Z,1.16
2023-03-17T01:58:59.454Z,1.87
2023-03-17T02:01:34.297Z,1.91
2023-03-17T02:04:02.677Z,1.36
2023-03-17T02:06:31.110Z,1.34
2023-03-17T02:08:59.370Z,1.42
2023-03-17T02:11:26.889Z,1.40
2023-03-17T02:13:54.595Z,1.21
2023-03-17T02:16:21.878Z,1.07
2023-03-17T02:18:50.771Z,1.07
2023-03-17T02:21:50.019Z,1.21
2023-03-17T02:24:24.193Z,1.16
2023-03-17T02:26:54.035Z,1.73
2023-03-17T02:29:22.084Z,1.05
2023-03-17T02:31:49.669Z,1.07
2023-03-17T02:34:17.024Z,1.23
2023-03-17T02:36:44.413Z,1.41
2023-03-17T02:39:13.557Z,1.67
2023-03-17T02:41:41.739Z,1.12
2023-03-17T02:44:09.831Z,1.70
2023-03-17T02:46:37.078Z,1.03
2023-03-17T02:49:05.173Z,1.07
2023-03-17T02:51:32.275Z,1.20
2023-03-17T02:53:59.693Z,1.46
2023-03-17T02:56:28.149Z,1.62
2023-03-17T02:58:56.081Z,0.95
2023-03-17T03:01:23.254Z,0.89
2023-03-17T03:03:50.796Z,0.65
2023-03-17T03:06:17.873Z,1.01
2023-03-17T03:08:45.298Z,0.85
2023-03-17T03:11:12.343Z,0.84
2023-03-17T03:13:41.464Z,0.85
2023-03-17T03:16:09.269Z,1.36
2023-03-17T03:18:37.785Z,0.84
2023-03-17T03:21:05.832Z,1.41
2023-03-17T03:23:33.736Z,0.81
2023-03-17T03:26:01.100Z,0.80
2023-03-17T03:28:28.539Z,0.78
2023-03-17T03:30:57.027Z,1.45
2023-03-17T03:33:24.537Z,0.86
2023-03-17T03:35:51.710Z,0.89
2023-03-17T03:38:21.712Z,0.65
2023-03-17T03:40:48.847Z,0.86
2023-03-17T03:43:23.362Z,1.27
2023-03-17T03:45:51.788Z,0.58
2023-03-17T03:48:21.764Z,0.71
2023-03-17T03:50:48.842Z,0.69
2023-03-17T03:53:16.379Z,0.67
2023-03-17T03:55:43.425Z,0.69
2023-03-17T03:58:11.439Z,1.21
2023-03-17T04:00:38.671Z,1.25
2023-03-17T04:03:06.103Z,0.64
2023-03-17T04:05:34.937Z,0.49
2023-03-17T04:08:02.075Z,1.19
2023-03-17T04:10:29.595Z,1.13
2023-03-17T04:12:57.522Z,1.05
2023-03-17T04:15:24.961Z,0.51
2023-03-17T04:17:54.884Z,0.54
2023-03-17T04:20:22.481Z,0.58
2023-03-17T04:22:51.821Z,1.18
2023-03-17T04:25:18.894Z,1.12
2023-03-17T04:27:46.198Z,1.02
2023-03-17T04:30:14.718Z,0.43
2023-03-17T04:32:42.578Z,0.34
2023-03-17T04:35:13.133Z,0.67
2023-03-17T04:37:40.589Z,0.81
2023-03-17T04:40:12.794Z,0.87
2023-03-17T04:42:40.703Z,0.87
2023-03-17T04:45:09.596Z,0.87
2023-03-17T04:47:37.877Z,0.04
2023-03-17T04:50:06.063Z,0.38
2023-03-17T04:52:33.637Z,0.41
2023-03-17T04:55:01.108Z,0.40
2023-03-17T04:57:29.822Z,1.12
2023-03-17T04:59:57.681Z,1.16
2023-03-17T05:02:25.191Z,1.18
2023-03-17T05:04:52.435Z,1.19
2023-03-17T05:07:19.851Z,0.68
2023-03-17T05:09:47.632Z,1.30
2023-03-17T05:12:15.542Z,1.39
2023-03-17T05:14:44.071Z,0.87
2023-03-17T05:17:11.726Z,1.59
2023-03-17T05:19:38.856Z,1.70
2023-03-17T05:22:06.260Z,2.24
2023-03-17T05:24:34.334Z,2.94
2023-03-17T05:27:01.710Z,3.32
2023-03-17T05:29:28.836Z,3.77
2023-03-17T05:31:57.854Z,4.25
2023-03-17T05:34:25.820Z,4.88
2023-03-17T05:36:53.644Z,5.27
2023-03-17T05:39:20.989Z,5.21
2023-03-17T05:41:48.422Z,5.65
2023-03-17T05:44:16.518Z,6.44
2023-03-17T05:46:43.771Z,6.52
2023-03-17T05:49:12.778Z,6.55
2023-03-17T05:51:41.951Z,6.03
2023-03-17T05:54:09.109Z,6.67
2023-03-17T05:56:36.912Z,6.67
2023-03-17T05:59:04.573Z,6.30
2023-03-17T06:01:32.401Z,7.25
2023-03-17T06:04:01.015Z,7.50
2023-03-17T06:06:29.770Z,7.76
2023-03-17T06:08:56.706Z,8.13
2023-03-17T06:11:24.231Z,7.87
2023-03-17T06:13:51.814Z,8.60
2023-03-17T06:16:19.913Z,8.56
2023-03-17T06:18:47.050Z,8.23
2023-03-17T06:21:14.721Z,8.26
2023-03-17T06:23:43.622Z,8.72
2023-03-17T06:26:11.025Z,8.51
2023-03-17T06:28:38.175Z,8.56
2023-03-17T06:31:07.304Z,8.42
2023-03-17T06:33:35.356Z,8.43
2023-03-17T06:36:03.387Z,8.86
2023-03-17T06:38:30.563Z,8.62
2023-03-17T06:40:59.160Z,7.91
2023-03-17T06:43:26.503Z,7.95
2023-03-17T06:45:53.752Z,7.98
2023-03-17T06:48:20.826Z,8.18
2023-03-17T06:50:49.097Z,7.52
2023-03-17T06:53:16.568Z,7.34
2023-03-17T06:55:45.052Z,8.08
2023-03-17T06:58:15.948Z,8.23
2023-03-17T07:00:45.517Z,7.71
2023-03-17T07:03:13.153Z,7.75
2023-03-17T07:05:40.648Z,7.98
2023-03-17T07:08:08.530Z,8.43
2023-03-17T07:10:36.760Z,7.89
2023-03-17T07:13:06.152Z,8.17
2023-03-17T07:15:38.745Z,8.49
2023-03-17T07:18:10.093Z,8.56
2023-03-17T07:20:38.253Z,7.37
2023-03-17T07:23:07.307Z,6.91
2023-03-17T07:25:39.405Z,7.86
2023-03-17T07:28:06.498Z,8.62
2023-03-17T07:30:35.226Z,8.45
2023-03-17T07:33:02.441Z,8.39
2023-03-17T07:35:31.411Z,8.77
2023-03-17T07:37:59.001Z,8.79
2023-03-17T07:40:26.825Z,8.79
2023-03-17T07:42:53.999Z,8.92
2023-03-17T07:45:21.457Z,9.14
2023-03-17T07:47:49.799Z,8.82
2023-03-17T07:50:17.180Z,9.38
2023-03-17T07:52:44.215Z,9.02
2023-03-17T07:55:12.554Z,8.58
2023-03-17T07:57:40.101Z,9.38
2023-03-17T08:00:10.347Z,9.48
2023-03-17T08:02:37.953Z,10.16
2023-03-17T08:05:07.911Z,10.32
2023-03-17T08:07:37.441Z,10.52
2023-03-17T08:10:05.758Z,10.29
2023-03-17T08:12:32.851Z,10.75
2023-03-17T08:15:00.318Z,10.18
2023-03-17T08:17:27.651Z,10.33
2023-03-17T08:19:56.106Z,10.60
2023-03-17T08:22:30.334Z,9.89
2023-03-17T08:24:58.581Z,9.73
2023-03-17T08:27:25.837Z,9.60
2023-03-17T08:29:53.151Z,9.75
2023-03-17T08:32:20.732Z,10.12
2023-03-17T08:34:48.566Z,10.29
2023-03-17T08:37:15.611Z,10.04
2023-03-17T08:39:44.930Z,10.02
2023-03-17T08:42:11.981Z,10.68
2023-03-17T08:44:39.658Z,10.93
2023-03-17T08:47:07.144Z,10.82
2023-03-17T08:49:36.596Z,10.91
2023-03-17T08:52:04.117Z,11.51
2023-03-17T08:54:31.670Z,10.98
2023-03-17T08:57:01.812Z,11.16
2023-03-17T08:59:29.377Z,11.33
2023-03-17T09:01:56.930Z,11.80
2023-03-17T09:04:25.953Z,11.48
2023-03-17T09:07:03.353Z,11.83
2023-03-17T09:09:32.209Z,12.44
2023-03-17T09:12:00.784Z,11.93
2023-03-17T09:14:28.522Z,11.82
2023-03-17T09:16:56.662Z,12.03
2023-03-17T09:19:24.226Z,11.91
2023-03-17T09:21:51.981Z,12.21
2023-03-17T09:24:20.170Z,12.35
2023-03-17T09:26:47.363Z,12.18
2023-03-17T09:29:16.160Z,12.04
2023-03-17T09:31:43.218Z,11.91
2023-03-17T09:34:11.506Z,11.85
2023-03-17T09:36:38.837Z,11.26
2023-03-17T09:39:06.664Z,11.55
2023-03-17T09:41:57.154Z,12.06
2023-03-17T09:44:46.033Z,11.43
2023-03-17T09:47:32.464Z,11.49
2023-03-17T09:50:03.203Z,12.34
2023-03-17T09:52:34.489Z,12.01
2023-03-17T09:55:04.168Z,12.10
2023-03-17T09:57:34.510Z,12.20
2023-03-17T10:00:07.795Z,12.13
2023-03-17T10:02:39.947Z,12.30
2023-03-17T10:05:17.415Z,12.58
2023-03-17T10:07:49.553Z,12.55
2023-03-17T10:10:25.216Z,13.38
2023-03-17T10:12:59.340Z,12.97
2023-03-17T10:15:36.134Z,13.13
2023-03-17T10:18:09.815Z,13.13
2023-03-17T10:20:49.189Z,12.54
2023-03-17T10:23:21.935Z,12.35
2023-03-17T10:25:49.399Z,11.70
2023-03-17T10:28:26.149Z,11.55
2023-03-17T10:31:16.156Z,11.44
2023-03-17T10:33:47.005Z,11.90
2023-03-17T10:36:16.675Z,11.82
2023-03-17T10:38:52.001Z,11.06
2023-03-17T10:41:19.364Z,10.98
2023-03-17T10:43:50.600Z,11.48
2023-03-17T10:46:24.285Z,10.99
2023-03-17T10:48:55.872Z,11.44
2023-03-17T10:51:30.897Z,10.95
2023-03-17T10:54:03.069Z,11.59
2023-03-17T10:56:36.382Z,11.68
2023-03-17T10:59:09.025Z,11.89
2023-03-17T11:01:40.153Z,12.01
2023-03-17T11:04:27.515Z,12.60
2023-03-17T11:06:57.189Z,12.48
2023-03-17T11:09:26.323Z,12.91
2023-03-17T11:12:02.059Z,13.05
2023-03-17T11:14:29.433Z,13.20
2023-03-17T11:17:00.968Z,12.59
2023-03-17T11:19:37.534Z,12.36
2023-03-17T11:22:11.691Z,12.36
2023-03-17T11:24:47.679Z,12.41
2023-03-17T11:27:27.701Z,12.71
2023-03-17T11:30:17.606Z,12.21
2023-03-17T11:32:56.539Z,12.62
2023-03-17T11:35:41.428Z,12.37
2023-03-17T11:38:24.840Z,12.97
2023-03-17T11:41:28.158Z,13.14
2023-03-17T11:44:52.369Z,13.35
2023-03-17T11:47:31.877Z,13.09
2023-03-17T11:50:07.809Z,13.05
2023-03-17T11:52:43.674Z,13.57
2023-03-17T11:55:23.239Z,13.59
2023-03-17T11:57:56.914Z,12.73
2023-03-17T12:00:30.048Z,13.23
2023-03-17T12:03:02.058Z,13.32
2023-03-17T12:05:31.701Z,13.25
2023-03-17T12:08:03.625Z,13.57
2023-03-17T12:10:37.779Z,13.20
2023-03-17T12:13:10.086Z,13.16
2023-03-17T12:15:41.926Z,13.29
2023-03-17T12:18:13.456Z,13.01
2023-03-17T12:20:50.907Z,13.05
2023-03-17T12:23:30.002Z,13.15
2023-03-17T12:26:01.822Z,13.04
2023-03-17T12:28:35.774Z,13.05
2023-03-17T12:31:07.403Z,13.71
2023-03-17T12:33:44.807Z,13.86
2023-03-17T12:36:16.206Z,13.49
2023-03-17T12:38:48.478Z,13.80
2023-03-17T12:41:28.719Z,13.14
2023-03-17T12:44:05.382Z,13.84
2023-03-17T12:46:53.218Z,13.92
2023-03-17T12:49:33.571Z,13.45
2023-03-17T12:52:25.997Z,13.80
2023-03-17T12:54:54.028Z,14.06
2023-03-17T12:57:26.868Z,13.68
2023-03-17T13:00:01.026Z,14.06
2023-03-17T13:02:36.574Z,14.04
2023-03-17T13:05:09.298Z,13.01
2023-03-17T13:07:46.807Z,13.74
2023-03-17T13:10:21.447Z,13.77
2023-03-17T13:13:06.844Z,13.82
2023-03-17T13:15:58.414Z,13.58
2023-03-17T13:19:06.121Z,13.25
2023-03-17T13:21:36.334Z,13.00
2023-03-17T13:24:41.890Z,13.77
2023-03-17T13:27:11.893Z,13.24
2023-03-17T13:29:45.236Z,13.15
2023-03-17T13:32:36.065Z,13.08
2023-03-17T13:35:37.648Z,12.64
2023-03-17T13:38:31.315Z,12.60
2023-03-17T13:41:17.790Z,12.74
2023-03-17T13:44:03.223Z,13.29
2023-03-17T13:46:41.817Z,13.16
2023-03-17T13:49:22.539Z,13.01
2023-03-17T13:51:59.826Z,12.99
2023-03-17T13:54:33.667Z,13.04
2023-03-17T13:57:25.062Z,13.01
2023-03-17T13:59:59.786Z,13.06
2023-03-17T14:02:31.775Z,13.03
2023-03-17T14:05:02.040Z,13.06
2023-03-17T14:07:38.268Z,13.50
2023-03-17T14:10:08.451Z,13.42
2023-03-17T14:12:42.764Z,13.46
2023-03-17T14:15:20.281Z,13.53
2023-03-17T14:17:52.338Z,13.11
2023-03-17T14:20:22.731Z,12.92
2023-03-17T14:22:55.192Z,13.07
2023-03-17T14:25:25.402Z,12.95
2023-03-17T14:27:57.110Z,13.36
2023-03-17T14:30:26.647Z,12.90
2023-03-17T14:33:00.998Z,13.44
2023-03-17T14:35:31.294Z,12.89
2023-03-17T14:38:00.231Z,13.34
2023-03-17T14:40:29.421Z,12.99
2023-03-17T14:42:58.470Z,12.90
2023-03-17T14:45:31.231Z,12.94
2023-03-17T14:48:01.811Z,13.13
2023-03-17T14:50:32.302Z,13.10
2023-03-17T14:53:01.058Z,13.45
2023-03-17T14:55:36.346Z,13.36
2023-03-17T14:58:10.216Z,12.85
2023-03-17T15:00:43.854Z,12.84
2023-03-17T15:03:19.916Z,13.24
2023-03-17T15:05:48.773Z,13.20
2023-03-17T15:08:43.323Z,12.74
2023-03-17T15:11:18.536Z,12.75
2023-03-17T15:13:48.446Z,13.17
2023-03-17T15:16:20.666Z,13.08
2023-03-17T15:18:50.693Z,13.00
2023-03-17T15:21:23.221Z,12.16
2023-03-17T15:23:50.865Z,12.28
2023-03-17T15:26:23.409Z,12.24
2023-03-17T15:28:52.606Z,12.61
2023-03-17T15:31:23.625Z,12.07
2023-03-17T15:33:52.314Z,12.45
2023-03-17T15:36:31.844Z,12.34
2023-03-17T15:39:00.610Z,12.32
2023-03-17T15:41:27.889Z,11.97
2023-03-17T15:43:56.937Z,12.02
2023-03-17T15:46:27.655Z,11.95
2023-03-17T15:48:55.299Z,12.40
2023-03-17T15:51:23.640Z,12.17
2023-03-17T15:53:51.015Z,11.80
2023-03-17T15:56:20.418Z,11.81
2023-03-17T15:58:49.196Z,11.68
2023-03-17T16:01:18.708Z,11.68
2023-03-17T16:03:47.831Z,12.07
2023-03-17T16:06:17.746Z,11.53
2023-03-17T16:08:45.319Z,11.45
2023-03-17T16:11:17.876Z,11.38
2023-03-17T16:13:46.666Z,11.32
2023-03-17T16:16:24.379Z,11.27
2023-03-17T16:18:52.595Z,11.24
2023-03-17T16:21:20.523Z,11.66
2023-03-17T16:23:48.628Z,11.12
2023-03-17T16:26:16.939Z,11.51
2023-03-17T16:28:45.651Z,10.92
2023-03-17T16:31:25.689Z,10.83
2023-03-17T16:33:55.002Z,10.86
2023-03-17T16:36:23.207Z,10.70
2023-03-17T16:38:51.337Z,10.66
2023-03-17T16:41:21.431Z,10.57
2023-03-17T16:43:52.596Z,10.98
2023-03-17T16:46:21.449Z,10.46
2023-03-17T16:48:50.947Z,10.96
2023-03-17T16:51:18.701Z,10.92
2023-03-17T16:53:46.589Z,10.35
2023-03-17T16:56:16.713Z,10.37
2023-03-17T16:58:44.858Z,10.68
2023-03-17T17:01:15.904Z,10.14
2023-03-17T17:03:44.311Z,10.63
2023-03-17T17:06:17.103Z,10.59
2023-03-17T17:08:45.744Z,10.05
2023-03-17T17:11:13.683Z,10.51
2023-03-17T17:13:42.293Z,9.94
2023-03-17T17:16:18.832Z,9.87
2023-03-17T17:18:47.328Z,10.37
2023-03-17T17:21:15.950Z,9.85
2023-03-17T17:23:43.553Z,9.83
2023-03-17T17:26:10.837Z,9.72
2023-03-17T17:28:39.997Z,10.22
2023-03-17T17:31:08.216Z,9.71
2023-03-17T17:33:36.474Z,9.52
2023-03-17T17:36:04.212Z,9.39
2023-03-17T17:38:33.242Z,10.08
2023-03-17T17:41:05.828Z,9.93
2023-03-17T17:43:33.616Z,10.01
2023-03-17T17:46:02.139Z,9.96
2023-03-17T17:48:29.612Z,9.51
2023-03-17T17:50:57.317Z,9.46
2023-03-17T17:53:24.849Z,9.84
2023-03-17T17:55:53.435Z,9.80
2023-03-17T17:58:23.281Z,9.26
2023-03-17T18:00:51.501Z,9.69
2023-03-17T18:03:22.392Z,9.25
2023-03-17T18:05:49.710Z,9.13
2023-03-17T18:08:17.057Z,9.55
2023-03-17T18:10:44.054Z,9.33
2023-03-17T18:13:13.070Z,9.51
2023-03-17T18:15:40.388Z,8.89
2023-03-17T18:18:07.931Z,9.29
2023-03-17T18:20:35.519Z,8.87
2023-03-17T18:23:03.758Z,8.81
2023-03-17T18:25:30.812Z,9.29
2023-03-17T18:27:58.287Z,8.75
2023-03-17T18:30:29.492Z,8.72
2023-03-17T18:33:00.617Z,8.77
2023-03-17T18:35:29.408Z,8.63
2023-03-17T18:37:57.687Z,9.09
2023-03-17T18:40:25.734Z,8.52
2023-03-17T18:42:53.578Z,8.50
2023-03-17T18:45:20.779Z,8.99
2023-03-17T18:47:49.662Z,8.42
2023-03-17T18:50:18.338Z,8.93
2023-03-17T18:52:46.220Z,8.36
2023-03-17T18:55:14.609Z,8.34
2023-03-17T18:57:44.460Z,8.28
2023-03-17T19:00:14.156Z,8.23
2023-03-17T19:02:41.649Z,8.22
2023-03-17T19:05:11.688Z,7.93
2023-03-17T19:07:40.725Z,8.24
2023-03-17T19:10:08.687Z,8.62
2023-03-17T19:12:36.386Z,8.58
2023-03-17T19:15:04.280Z,8.09
2023-03-17T19:17:32.211Z,8.01
2023-03-17T19:19:59.260Z,8.04
2023-03-17T19:22:27.982Z,7.88
2023-03-17T19:24:54.892Z,8.38
2023-03-17T19:27:22.373Z,7.65
2023-03-17T19:29:49.673Z,7.81
2023-03-17T19:32:17.246Z,7.79
2023-03-17T19:34:44.400Z,7.66
2023-03-17T19:37:11.843Z,7.66
2023-03-17T19:39:40.989Z,8.07
2023-03-17T19:42:08.343Z,7.48
2023-03-17T19:44:37.582Z,7.85
2023-03-17T19:47:08.090Z,7.94
2023-03-17T19:49:35.331Z,7.40
2023-03-17T19:52:03.382Z,7.86
2023-03-17T19:54:30.775Z,7.77
2023-03-17T19:57:01.506Z,7.12
2023-03-17T19:59:29.179Z,7.21
2023-03-17T20:01:56.853Z,7.58
2023-03-17T20:04:24.126Z,7.57
2023-03-17T20:06:55.810Z,7.53
2023-03-17T20:09:24.661Z,7.51
2023-03-17T20:11:53.410Z,6.93
2023-03-17T20:14:24.290Z,6.69
2023-03-17T20:16:52.027Z,7.20
2023-03-17T20:19:19.094Z,6.76
2023-03-17T20:21:46.582Z,6.85
2023-03-17T20:24:14.867Z,6.34
2023-03-17T20:26:46.055Z,7.22
2023-03-17T20:29:16.290Z,6.74
2023-03-17T20:31:45.110Z,6.45
2023-03-17T20:34:14.137Z,7.13
2023-03-17T20:36:43.601Z,6.48
2023-03-17T20:39:14.894Z,7.03
2023-03-17T20:41:45.601Z,6.55
2023-03-17T20:44:13.001Z,6.29
2023-03-17T20:46:41.747Z,6.40
2023-03-17T20:49:12.158Z,6.84
2023-03-17T20:51:40.881Z,6.36
2023-03-17T20:54:08.837Z,6.31
2023-03-17T20:56:37.486Z,6.18
2023-03-17T20:59:05.688Z,6.70
2023-03-17T21:01:33.796Z,6.69
2023-03-17T21:04:01.190Z,5.98
2023-03-17T21:06:30.093Z,6.66
2023-03-17T21:08:57.087Z,6.63
2023-03-17T21:11:26.621Z,6.10
2023-03-17T21:13:54.152Z,6.31
2023-03-17T21:16:23.991Z,5.94
2023-03-17T21:18:51.731Z,5.88
2023-03-17T21:21:20.057Z,5.79
2023-03-17T21:23:48.900Z,5.81
2023-03-17T21:26:16.087Z,6.45
2023-03-17T21:28:43.285Z,5.86
2023-03-17T21:31:12.234Z,6.33
2023-03-17T21:33:39.650Z,5.67
2023-03-17T21:36:07.881Z,5.79
2023-03-17T21:38:35.724Z,5.60
2023-03-17T21:41:21.536Z,6.15
2023-03-17T21:43:49.183Z,5.51
2023-03-17T21:46:19.013Z,6.07
2023-03-17T21:48:46.098Z,5.46
2023-03-17T21:51:13.737Z,5.47
2023-03-17T21:53:41.015Z,6.02
2023-03-17T21:56:08.929Z,5.41
2023-03-17T21:58:37.880Z,5.36
2023-03-17T22:01:06.272Z,5.96
2023-03-17T22:03:35.761Z,5.35
2023-03-17T22:06:05.272Z,5.16
2023-03-17T22:08:32.760Z,5.33
2023-03-17T22:11:07.081Z,5.87
2023-03-17T22:13:34.463Z,5.30
2023-03-17T22:16:04.523Z,5.85
2023-03-17T22:18:32.447Z,5.13
2023-03-17T22:21:00.682Z,5.18
2023-03-17T22:23:29.055Z,5.72
2023-03-17T22:25:57.284Z,5.72
2023-03-17T22:28:24.867Z,5.71
2023-03-17T22:30:52.145Z,5.13
2023-03-17T22:33:20.547Z,5.66
2023-03-17T22:35:48.344Z,5.63
2023-03-17T22:38:15.485Z,5.11
2023-03-17T22:40:42.887Z,4.80
2023-03-17T22:43:10.585Z,4.99
2023-03-17T22:45:37.870Z,5.49
2023-03-17T22:48:05.204Z,4.87
2023-03-17T22:50:34.277Z,4.99
2023-03-17T22:53:01.635Z,4.94
2023-03-17T22:55:29.037Z,5.37
2023-03-17T22:57:55.976Z,5.31
2023-03-17T23:00:25.628Z,4.66
2023-03-17T23:02:52.620Z,4.57
2023-03-17T23:05:20.353Z,5.12
2023-03-17T23:07:50.701Z,5.09
2023-03-17T23:10:23.122Z,5.02
2023-03-17T23:12:50.884Z,4.97
2023-03-17T23:15:20.176Z,4.80
2023-03-17T23:17:47.560Z,4.83
2023-03-17T23:20:15.738Z,4.75
2023-03-17T23:22:43.382Z,4.55
2023-03-17T23:25:13.631Z,4.03
2023-03-17T23:27:40.929Z,4.10
2023-03-17T23:30:11.630Z,3.93
2023-03-17T23:32:40.817Z,3.57
2023-03-17T23:35:09.441Z,3.86
2023-03-17T23:37:37.428Z,3.84
2023-03-17T23:40:06.482Z,3.86
2023-03-17T23:42:35.682Z,4.32
2023-03-17T23:45:04.000Z,3.74
2023-03-17T23:47:31.465Z,4.13
2023-03-17T23:49:59.061Z,4.25
2023-03-17T23:52:26.303Z,3.81
2023-03-17T23:55:01.118Z,3.66
2023-03-17T23:57:28.147Z,4.06
2023-03-17T23:59:57.294Z,4.19
